Time;durP1;ratioP1;P1;durP2;ratioP2;P2;SDS_P1;SDS_P2;PMS_P1;PMS_P2;Temp;Humidity;BMP_temperature;BMP_pressure;BME280_temperature;BME280_humidity;BME280_pressure;Samples;Min_cycle;Max_cycle;Signal;HPM_P1;HPM_P2
2021/04/19 00:02:22;;;;;;;11.00;8.75;;;;;;;12.70;61.25;100577.08;1712328;83;21149;-64
2021/04/19 00:04:50;;;;;;;10.65;8.98;;;;;;;12.72;61.25;100575.28;1679735;85;21144;-54
2021/04/19 00:07:18;;;;;;;10.88;8.75;;;;;;;12.73;61.33;100571.75;1699506;83;21146;-53
2021/04/19 00:09:47;;;;;;;14.13;9.73;;;;;;;12.70;61.65;100570.95;1667081;86;21657;-64
2021/04/19 00:12:15;;;;;;;10.05;8.45;;;;;;;12.70;61.39;100566.52;1718193;83;21137;-54
2021/04/19 00:14:44;;;;;;;11.90;8.90;;;;;;;12.69;61.42;100574.02;1666897;86;21132;-53
2021/04/19 00:17:13;;;;;;;11.03;8.33;;;;;;;12.69;61.52;100571.84;1715768;83;21142;-64
2021/04/19 00:19:43;;;;;;;9.90;8.03;;;;;;;12.72;61.33;100577.92;1692970;85;21186;-64
2021/04/19 00:22:10;;;;;;;10.53;9.08;;;;;;;12.74;61.47;100580.09;1696825;84;21121;-64
2021/04/19 00:24:38;;;;;;;10.38;8.28;;;;;;;12.74;61.40;100573.48;1670062;85;21560;-64
2021/04/19 00:27:06;;;;;;;9.85;8.38;;;;;;;12.72;61.61;100573.11;1723253;83;21170;-63
2021/04/19 00:29:34;;;;;;;10.10;8.18;;;;;;;12.70;61.66;100564.34;1694228;85;21643;-53
2021/04/19 00:32:05;;;;;;;10.35;9.25;;;;;;;12.70;61.61;100563.02;1717296;83;21122;-64
2021/04/19 00:34:33;;;;;;;10.08;8.63;;;;;;;12.69;61.71;100564.77;1675254;85;21187;-64
2021/04/19 00:37:01;;;;;;;10.15;8.73;;;;;;;12.72;61.71;100563.87;1725302;83;21161;-54
2021/04/19 00:39:31;;;;;;;10.30;8.85;;;;;;;12.68;61.72;100551.15;1675143;85;21214;-55
2021/04/19 00:41:58;;;;;;;12.73;8.80;;;;;;;12.69;61.76;100559.49;1698744;83;21177;-65
2021/04/19 00:44:27;;;;;;;12.40;9.03;;;;;;;12.72;61.80;100562.55;1676812;84;21232;-65
2021/04/19 00:46:54;;;;;;;11.68;8.70;;;;;;;12.71;61.80;100556.38;1671319;83;21568;-64
2021/04/19 00:49:24;;;;;;;11.10;8.63;;;;;;;12.74;61.76;100554.15;1666796;86;21168;-53
2021/04/19 00:51:53;;;;;;;10.38;8.73;;;;;;;12.78;61.64;100554.05;1713804;83;21193;-64
2021/04/19 00:54:21;;;;;;;10.90;8.73;;;;;;;12.82;61.61;100552.67;1689474;85;21193;-65
2021/04/19 00:56:51;;;;;;;9.33;8.40;;;;;;;12.84;61.55;100550.41;1716381;83;21137;-64
2021/04/19 00:59:19;;;;;;;10.23;9.10;;;;;;;12.85;61.51;100552.16;1667171;86;21332;-65
2021/04/19 01:01:49;;;;;;;10.18;8.78;;;;;;;12.86;61.47;100549.08;1704090;83;21126;-64
2021/04/19 01:04:17;;;;;;;10.50;8.88;;;;;;;12.84;61.45;100550.41;1669168;85;21185;-54
2021/04/19 01:06:46;;;;;;;10.10;8.38;;;;;;;12.83;61.48;100549.13;1706440;83;21162;-64
2021/04/19 01:09:15;;;;;;;10.32;8.95;;;;;;;12.81;61.48;100555.75;1666917;85;21206;-64
2021/04/19 01:11:43;;;;;;;9.80;8.80;;;;;;;12.81;61.45;100545.65;1708043;83;21141;-53
2021/04/19 01:14:11;;;;;;;11.53;8.78;;;;;;;12.81;61.50;100542.54;1666871;86;21218;-64
2021/04/19 01:16:39;;;;;;;11.20;8.90;;;;;;;12.79;61.48;100545.23;1724433;83;21126;-65
2021/04/19 01:19:08;;;;;;;9.83;8.80;;;;;;;12.76;61.50;100540.00;1693232;85;21184;-53
2021/04/19 01:21:37;;;;;;;11.33;9.18;;;;;;;12.78;61.56;100537.34;1721764;83;21126;-53
2021/04/19 01:24:06;;;;;;;11.20;8.43;;;;;;;12.79;61.54;100535.98;1694150;85;21604;-54
2021/04/19 01:26:34;;;;;;;13.20;9.38;;;;;;;12.81;61.53;100541.22;1726053;83;21700;-65
2021/04/19 01:29:02;;;;;;;10.48;8.18;;;;;;;12.82;61.49;100537.68;1687313;85;21299;-64
2021/04/19 01:31:32;;;;;;;10.13;8.88;;;;;;;12.84;61.42;100536.34;1725767;83;21142;-64
2021/04/19 01:34:02;;;;;;;11.03;9.50;;;;;;;12.85;61.36;100534.12;1677430;85;21816;-54
2021/04/19 01:36:30;;;;;;;10.03;8.88;;;;;;;12.85;61.38;100528.37;1717420;83;21142;-65
2021/04/19 01:38:58;;;;;;;9.73;8.58;;;;;;;12.87;61.25;100523.94;1632872;86;21218;-58
2021/04/19 01:41:29;;;;;;;10.25;9.10;;;;;;;12.88;61.27;100518.22;1696451;84;21182;-54
2021/04/19 01:43:56;;;;;;;10.30;8.30;;;;;;;12.86;61.34;100514.27;1689415;84;21531;-54
2021/04/19 01:46:26;;;;;;;10.18;9.08;;;;;;;12.87;61.16;100516.02;1672060;84;21301;-53
2021/04/19 01:48:57;;;;;;;10.35;8.65;;;;;;;12.85;61.15;100521.77;1743522;82;21611;-53
2021/04/19 01:51:27;;;;;;;10.95;8.93;;;;;;;12.82;61.20;100518.34;1736554;82;21158;-64
2021/04/19 01:53:55;;;;;;;;;;;;;;;12.83;61.11;100516.97;1714095;84;21134;-65
2021/04/19 01:56:24;;;;;;;9.78;8.25;;;;;;;12.82;61.09;100515.23;1694317;84;20179;-64
2021/04/19 01:58:52;;;;;;;10.25;8.60;;;;;;;12.83;61.07;100516.11;1684193;84;21142;-64
2021/04/19 02:01:20;;;;;;;10.05;8.63;;;;;;;12.85;60.96;100512.53;1719053;82;21131;-64
2021/04/19 02:03:54;;;;;;;11.15;8.20;;;;;;;12.87;60.94;100506.77;1697964;84;21246;-53
2021/04/19 02:06:55;;;;;;;9.13;8.00;;;;;;;12.88;60.88;100506.33;1731050;81;21115;-54
2021/04/19 02:09:30;;;;;;;10.43;8.45;;;;;;;12.87;60.89;100513.38;1687758;84;21158;-53
2021/04/19 02:12:40;;;;;;;8.88;7.87;;;;;;;12.87;60.84;100519.13;1748588;82;21113;-53
2021/04/19 02:15:21;;;;;;;9.60;7.90;;;;;;;12.85;60.88;100519.13;1727962;82;21147;-64
2021/04/19 02:18:14;;;;;;;11.35;9.00;;;;;;;12.83;60.92;100530.17;1718781;83;21160;-54
2021/04/19 02:20:52;;;;;;;10.32;8.48;;;;;;;12.83;61.01;100533.28;1718787;83;21179;-55
2021/04/19 02:23:36;;;;;;;12.05;8.30;;;;;;;12.81;61.11;100526.69;1699734;84;21127;-53
2021/04/19 02:26:12;;;;;;;10.25;9.08;;;;;;;12.81;61.08;100525.37;1718758;83;21159;-53
2021/04/19 02:28:51;;;;;;;9.95;8.95;;;;;;;12.84;61.11;100526.64;1735040;82;21177;-53
2021/04/19 02:31:20;;;;;;;10.13;8.73;;;;;;;12.88;61.13;100532.28;1741993;82;21291;-51
2021/04/19 02:33:49;;;;;;;10.50;9.03;;;;;;;12.91;61.12;100530.05;1713633;82;21200;-63
2021/04/19 02:36:17;;;;;;;11.55;9.35;;;;;;;12.93;61.16;100529.57;1684070;85;21202;-52
2021/04/19 02:38:51;;;;;;;9.40;8.43;;;;;;;12.93;61.19;100526.46;1719331;82;21326;-52
2021/04/19 02:41:22;;;;;;;10.43;8.78;;;;;;;12.96;61.13;100518.95;1693831;84;21142;-51
2021/04/19 02:43:49;;;;;;;10.05;8.80;;;;;;;12.94;61.01;100519.42;1746170;82;21617;-63
2021/04/19 02:46:18;;;;;;;10.28;8.53;;;;;;;12.90;61.07;100519.06;1710760;83;21264;-64
2021/04/19 02:48:47;;;;;;;10.55;8.65;;;;;;;12.85;61.11;100513.00;1726096;83;21227;-52
2021/04/19 02:51:17;;;;;;;10.53;8.38;;;;;;;12.80;61.15;100510.45;1728511;82;21191;-64
2021/04/19 02:53:44;;;;;;;10.80;8.45;;;;;;;12.78;61.22;100507.83;1708076;83;21162;-64
2021/04/19 02:56:12;;;;;;;11.78;9.08;;;;;;;12.76;61.25;100506.13;1726719;82;21091;-64
2021/04/19 02:58:49;;;;;;;9.18;8.28;;;;;;;12.77;61.28;100511.84;1726105;83;21143;-52
2021/04/19 03:01:27;;;;;;;10.10;8.28;;;;;;;12.76;61.29;100510.09;1746540;82;21547;-64
2021/04/19 03:03:59;;;;;;;12.47;9.28;;;;;;;12.76;61.34;100510.95;1718907;83;21178;-63
2021/04/19 03:06:29;;;;;;;10.63;8.70;;;;;;;12.75;61.32;100507.89;1726252;83;21284;-64
2021/04/19 03:09:00;;;;;;;10.10;8.70;;;;;;;12.78;61.30;100514.89;1696967;83;21623;-51
2021/04/19 03:11:58;;;;;;;11.10;8.73;;;;;;;12.79;61.21;100512.21;1753816;81;21285;-52
2021/04/19 03:14:32;;;;;;;9.75;8.75;;;;;;;12.81;61.13;100518.77;1719135;83;21155;-51
2021/04/19 03:17:08;;;;;;;10.70;9.20;;;;;;;12.86;61.19;100523.98;1756114;81;21112;-52
2021/04/19 03:20:07;;;;;;;9.58;8.55;;;;;;;12.93;61.11;100513.72;1819128;77;22205;-50
2021/04/19 03:22:39;;;;;;;10.00;8.95;;;;;;;12.92;61.13;100515.94;1785277;80;21119;-53
2021/04/19 03:25:10;;;;;;;13.00;9.03;;;;;;;12.94;61.06;100517.64;1760198;81;21184;-62
2021/04/19 03:27:40;;;;;;;11.38;9.20;;;;;;;12.97;61.07;100519.37;1769011;80;21131;-62
2021/04/19 03:30:12;;;;;;;10.43;8.83;;;;;;;13.02;60.94;100515.30;1754669;80;21154;-62
2021/04/19 03:32:48;;;;;;;11.68;8.88;;;;;;;13.04;61.15;100516.99;1749683;80;21150;-51
2021/04/19 03:35:22;;;;;;;10.53;8.60;;;;;;;13.06;61.07;100515.19;1750160;80;21293;-52
2021/04/19 03:37:50;;;;;;;10.18;9.05;;;;;;;13.05;60.91;100516.56;1749964;80;21205;-64
2021/04/19 03:40:35;;;;;;;12.47;9.03;;;;;;;13.03;60.92;100511.29;1754496;80;21177;-52
2021/04/19 03:43:10;;;;;;;9.40;8.25;;;;;;;13.04;60.95;100513.50;1780019;80;21118;-63
2021/04/19 03:45:41;;;;;;;17.12;9.38;;;;;;;13.04;60.95;100513.50;1788212;80;21142;-64
2021/04/19 03:48:28;;;;;;;11.30;8.58;;;;;;;13.14;61.17;100507.13;1835462;77;22143;-50
2021/04/19 03:51:07;;;;;;;22.15;9.75;;;;;;;13.16;60.78;100512.36;1792482;80;21151;-53
2021/04/19 03:53:38;;;;;;;14.38;9.35;;;;;;;13.19;60.61;100512.30;1792672;80;21195;-53
2021/04/19 03:56:06;;;;;;;17.15;8.60;;;;;;;13.20;60.34;100509.64;1764017;80;21573;-53
2021/04/19 03:58:36;;;;;;;9.73;8.55;;;;;;;13.23;60.37;100510.02;1775364;80;21115;-64
2021/04/19 04:01:06;;;;;;;14.83;10.65;;;;;;;13.21;60.51;100514.03;1774796;80;21130;-64
2021/04/19 04:03:49;;;;;;;42.60;25.23;;;;;;;13.15;60.67;100510.63;1792576;80;21587;-52
2021/04/19 04:06:25;;;;;;;37.45;28.73;;;;;;;13.12;60.81;100508.93;1816736;77;28394;-51
2021/04/19 04:08:54;;;;;;;33.10;22.98;;;;;;;13.08;60.92;100512.06;1743057;81;21171;-50
2021/04/19 04:11:21;;;;;;;28.00;23.25;;;;;;;13.09;60.92;100512.95;1762122;81;21292;-62
2021/04/19 04:13:51;;;;;;;28.07;20.00;;;;;;;13.11;60.97;100517.76;1761231;80;21142;-53
2021/04/19 04:16:19;;;;;;;25.55;21.25;;;;;;;13.12;60.96;100513.33;1750628;81;21143;-54
2021/04/19 04:19:07;;;;;;;20.88;16.10;;;;;;;13.19;60.96;100513.62;1821771;77;22601;-51
2021/04/19 04:21:37;;;;;;;14.87;12.58;;;;;;;13.17;60.89;100512.34;1759436;81;21157;-53
2021/04/19 04:24:07;;;;;;;16.70;11.35;;;;;;;13.17;60.93;100518.95;1734845;81;21196;-52
2021/04/19 04:26:36;;;;;;;13.95;11.30;;;;;;;13.19;61.03;100518.48;1758458;81;21567;-54
2021/04/19 04:29:03;;;;;;;14.35;9.98;;;;;;;13.24;60.87;100523.22;1728399;83;21552;-52
2021/04/19 04:31:33;;;;;;;13.78;9.85;;;;;;;13.28;60.99;100513.88;1724773;83;21150;-64
2021/04/19 04:34:03;;;;;;;14.33;11.25;;;;;;;13.30;60.99;100514.71;1712086;82;21154;-63
2021/04/19 04:36:31;;;;;;;12.95;10.08;;;;;;;13.30;61.10;100505.02;1709464;83;21155;-63
2021/04/19 04:39:00;;;;;;;13.05;9.78;;;;;;;13.29;61.13;100510.33;1710736;82;21175;-51
2021/04/19 04:41:30;;;;;;;11.73;9.63;;;;;;;13.30;61.22;100512.95;1709603;83;21170;-53
2021/04/19 04:43:58;;;;;;;11.12;9.05;;;;;;;13.32;61.16;100504.54;1699823;83;21202;-64
2021/04/19 04:46:49;;;;;;;10.88;8.90;;;;;;;13.36;61.19;100507.54;1716264;83;21591;-53
2021/04/19 04:49:27;;;;;;;14.53;8.73;;;;;;;13.41;61.16;100501.28;1673122;83;21130;-64
2021/04/19 04:51:56;;;;;;;12.05;9.20;;;;;;;13.43;61.19;100506.97;1721715;83;21630;-52
2021/04/19 04:54:24;;;;;;;10.60;8.88;;;;;;;13.47;61.22;100507.33;1715608;83;21180;-64
2021/04/19 04:56:55;;;;;;;13.32;10.00;;;;;;;13.48;61.26;100507.74;1717670;83;21129;-64
2021/04/19 04:59:24;;;;;;;10.80;9.10;;;;;;;13.46;61.34;100496.80;1707970;82;21601;-51
2021/04/19 05:01:51;;;;;;;10.82;9.65;;;;;;;13.44;61.33;100499.92;1692076;83;21131;-63
2021/04/19 05:04:19;;;;;;;10.60;9.50;;;;;;;13.44;61.50;100499.92;1681460;84;21156;-51
2021/04/19 05:06:48;;;;;;;10.58;9.15;;;;;;;13.39;61.52;100496.90;1708971;83;21116;-63
2021/04/19 05:09:16;;;;;;;11.78;9.63;;;;;;;13.41;61.64;100499.96;1668139;84;21626;-64
2021/04/19 05:11:44;;;;;;;11.70;9.45;;;;;;;13.39;61.73;100499.98;1706659;83;21286;-52
2021/04/19 05:14:11;;;;;;;11.45;9.35;;;;;;;13.41;61.85;100500.84;1713483;84;21658;-52
2021/04/19 05:16:39;;;;;;;11.70;9.63;;;;;;;13.46;61.82;100496.33;1713066;83;21204;-53
2021/04/19 05:19:08;;;;;;;10.80;9.40;;;;;;;13.52;61.93;100500.60;1679385;83;21307;-52
2021/04/19 05:21:37;;;;;;;11.28;9.53;;;;;;;13.54;61.91;100496.14;1679308;84;21152;-52
2021/04/19 05:24:06;;;;;;;10.85;8.75;;;;;;;13.58;61.82;100502.25;1719324;82;21193;-65
2021/04/19 05:26:33;;;;;;;9.88;8.45;;;;;;;13.61;61.64;100507.48;1725649;81;21270;-53
2021/04/19 05:29:01;;;;;;;11.38;9.80;;;;;;;13.65;61.46;100504.71;1732940;81;21184;-65
2021/04/19 05:31:29;;;;;;;12.40;9.90;;;;;;;13.67;61.47;100505.55;1711940;84;21586;-64
2021/04/19 05:33:57;;;;;;;10.78;9.55;;;;;;;13.67;61.34;100502.91;1748138;81;21159;-53
2021/04/19 05:36:26;;;;;;;11.25;9.60;;;;;;;13.67;61.27;100506.02;1741577;82;21151;-54
2021/04/19 05:38:54;;;;;;;11.65;10.08;;;;;;;13.72;61.39;100508.08;1711944;84;21189;-53
2021/04/19 05:41:22;;;;;;;11.18;9.23;;;;;;;13.72;61.37;100505.43;1747930;82;21144;-64
2021/04/19 05:43:50;;;;;;;11.57;9.70;;;;;;;13.76;61.33;100503.59;1709857;83;21174;-54
2021/04/19 05:46:18;;;;;;;14.07;9.85;;;;;;;13.77;61.33;100504.87;1740907;82;21539;-54
2021/04/19 05:48:47;;;;;;;10.88;9.78;;;;;;;13.81;61.51;100509.19;1677248;84;21562;-65
2021/04/19 05:51:27;;;;;;;19.65;10.55;;;;;;;13.84;61.32;100510.91;1720966;81;21166;-54
2021/04/19 05:53:56;;;;;;;72.78;28.83;;;;;;;13.88;61.33;100500.67;1703028;84;21196;-63
2021/04/19 05:56:35;;;;;;;104.92;66.30;;;;;;;13.95;61.20;100502.70;1731563;82;21162;-64
2021/04/19 05:59:17;;;;;;;63.95;51.77;;;;;;;14.01;61.18;100503.00;1718186;82;21155;-63
2021/04/19 06:01:47;;;;;;;;;;;;;;;14.03;60.99;100497.22;1748252;82;21123;-53
2021/04/19 06:04:38;;;;;;;329.52;235.60;;;;;;;14.05;61.06;100498.93;1747721;82;20247;-63
2021/04/19 06:07:17;;;;;;;134.60;98.97;;;;;;;14.07;60.89;100504.17;1747858;81;21559;-53
2021/04/19 06:10:18;;;;;;;1648.23;920.45;;;;;;;14.15;60.80;100506.61;1810419;77;22231;-54
2021/04/19 06:12:54;;;;;;;466.40;342.60;;;;;;;14.16;62.29;100506.59;1768752;80;21145;-64
2021/04/19 06:15:23;;;;;;;237.35;164.43;;;;;;;14.36;60.87;100497.25;1786137;80;21154;-54
2021/04/19 06:17:52;;;;;;;88.87;65.67;;;;;;;14.36;60.47;100499.47;1798561;80;21573;-65
2021/04/19 06:20:21;;;;;;;60.35;43.13;;;;;;;14.41;60.29;100503.30;1763900;80;21170;-63
2021/04/19 06:22:53;;;;;;;52.08;43.02;;;;;;;14.36;60.16;100494.17;1765812;80;21161;-63
2021/04/19 06:25:22;;;;;;;40.05;34.48;;;;;;;14.39;60.33;100502.47;1767750;80;21163;-64
2021/04/19 06:27:59;;;;;;;30.85;27.07;;;;;;;14.42;60.26;100499.30;1767075;80;21146;-53
2021/04/19 06:30:30;;;;;;;26.10;23.40;;;;;;;14.47;60.10;100509.77;1725849;80;21623;-64
2021/04/19 06:32:57;;;;;;;24.35;20.52;;;;;;;14.52;59.90;100516.28;1791561;80;21186;-64
2021/04/19 06:35:26;;;;;;;24.77;20.48;;;;;;;14.52;59.92;100518.46;1759623;80;21212;-54
2021/04/19 06:37:55;;;;;;;17.87;15.90;;;;;;;14.49;59.99;100522.52;1775164;80;21157;-64
2021/04/19 06:40:25;;;;;;;18.90;16.48;;;;;;;14.51;59.94;100528.64;1759298;80;21138;-64
2021/04/19 06:42:54;;;;;;;20.70;16.40;;;;;;;14.54;59.94;100528.56;1771215;80;21711;-65
2021/04/19 06:45:22;;;;;;;19.57;16.55;;;;;;;14.56;59.69;100525.89;1765867;80;21181;-53
2021/04/19 06:47:52;;;;;;;19.62;16.07;;;;;;;14.60;59.88;100526.66;1752791;81;21241;-65
2021/04/19 06:50:20;;;;;;;22.82;17.95;;;;;;;14.64;59.95;100528.33;1767401;80;21225;-54
2021/04/19 06:52:48;;;;;;;19.35;17.02;;;;;;;14.66;59.96;100535.30;1780464;80;21149;-54
2021/04/19 06:55:18;;;;;;;17.45;15.08;;;;;;;14.70;59.78;100527.72;1764536;80;21158;-54
2021/04/19 06:57:49;;;;;;;;;;;;;;;14.71;59.75;100530.79;1767885;80;21181;-65
2021/04/19 07:00:18;;;;;;;14.98;13.38;;;;;;;14.76;59.76;100524.06;1738981;81;20250;-54
2021/04/19 07:02:56;;;;;;;15.50;13.90;;;;;;;14.81;59.98;100526.57;1763533;81;21165;-54
2021/04/19 07:05:27;;;;;;;13.40;11.80;;;;;;;14.85;59.63;100521.13;1758603;80;21138;-53
2021/04/19 07:08:30;;;;;;;12.30;11.03;;;;;;;14.85;59.53;100516.30;1752634;81;21209;-53
2021/04/19 07:11:05;;;;;;;15.88;12.85;;;;;;;14.87;59.57;100519.78;1771967;80;21609;-66
2021/04/19 07:13:36;;;;;;;46.40;41.45;;;;;;;14.87;59.45;100521.11;1765812;80;21114;-54
2021/04/19 07:16:05;;;;;;;21.35;19.10;;;;;;;14.88;59.41;100520.19;1773735;80;21197;-66
2021/04/19 07:18:34;;;;;;;14.95;13.40;;;;;;;14.91;59.37;100513.48;1784254;80;21098;-54
2021/04/19 07:21:08;;;;;;;14.68;11.57;;;;;;;14.94;59.52;100524.00;1786555;80;21625;-66
2021/04/19 07:23:36;;;;;;;13.72;12.33;;;;;;;15.00;59.66;100525.59;1752912;80;21562;-54
2021/04/19 07:26:05;;;;;;;13.78;12.00;;;;;;;15.00;59.36;100521.63;1784241;80;21621;-54
2021/04/19 07:28:37;;;;;;;13.13;11.65;;;;;;;15.00;59.25;100523.83;1785596;80;21149;-54
2021/04/19 07:31:09;;;;;;;12.50;10.82;;;;;;;15.02;59.11;100525.09;1780800;80;21130;-66
2021/04/19 07:33:37;;;;;;;12.03;10.70;;;;;;;15.01;59.09;100526.86;1791134;80;21199;-66
2021/04/19 07:36:28;;;;;;;13.75;11.20;;;;;;;15.09;59.30;100529.76;1775490;80;21165;-66
2021/04/19 07:38:59;;;;;;;12.40;10.88;;;;;;;15.10;58.95;100525.75;1775011;80;21203;-54
2021/04/19 07:41:46;;;;;;;;;;;;;;;15.09;59.15;100522.69;1776905;80;21583;-54
2021/04/19 07:44:38;;;;;;;11.83;10.58;;;;;;;15.18;59.13;100524.67;1767348;80;20168;-66
2021/04/19 07:47:40;;;;;;;15.30;13.50;;;;;;;15.33;58.96;100519.36;1784461;80;21602;-53
2021/04/19 07:50:15;;;;;;;15.65;13.35;;;;;;;15.38;59.31;100521.42;1775809;80;21331;-65
2021/04/19 07:53:02;;;;;;;21.75;16.67;;;;;;;14.87;60.79;100521.95;1768637;80;21696;-65
2021/04/19 07:55:39;;;;;;;19.30;14.93;;;;;;;15.20;60.40;100517.06;1774336;80;21121;-65
2021/04/19 07:58:17;;;;;;;15.10;13.50;;;;;;;15.55;59.45;100510.30;1776493;80;21563;-65
2021/04/19 08:00:45;;;;;;;16.75;12.47;;;;;;;15.64;59.40;100513.11;1772786;80;21145;-65
2021/04/19 08:03:18;;;;;;;15.10;12.07;;;;;;;15.73;59.27;100512.36;1780263;80;21158;-65
2021/04/19 08:05:49;;;;;;;13.10;10.75;;;;;;;15.80;59.11;100510.40;1775953;80;21463;-67
2021/04/19 08:08:32;;;;;;;12.80;11.18;;;;;;;15.94;58.87;100511.75;1770617;80;21613;-53
2021/04/19 08:11:11;;;;;;;11.93;10.38;;;;;;;15.94;58.87;100511.75;1764803;80;21180;-66
2021/04/19 08:13:39;;;;;;;11.45;9.63;;;;;;;15.25;60.33;100519.57;1767201;80;21144;-53
2021/04/19 08:16:18;;;;;;;12.25;10.80;;;;;;;15.68;59.06;100518.27;1790966;80;21190;-66
2021/04/19 08:18:48;;;;;;;13.40;11.15;;;;;;;15.94;58.43;100517.05;1792579;80;21168;-66
2021/04/19 08:21:27;;;;;;;16.55;13.10;;;;;;;16.02;58.09;100514.58;1791783;80;21126;-66
2021/04/19 08:23:55;;;;;;;17.82;14.35;;;;;;;16.05;57.87;100516.25;1780589;80;21653;-53
2021/04/19 08:26:22;;;;;;;15.53;12.73;;;;;;;15.62;58.23;100523.78;1774576;80;21177;-53
2021/04/19 08:28:51;;;;;;;24.40;19.98;;;;;;;16.02;57.24;100520.34;1784662;80;21609;-53
2021/04/19 08:31:19;;;;;;;16.90;13.95;;;;;;;16.00;57.03;100529.69;1763313;80;21600;-54
2021/04/19 08:33:47;;;;;;;13.45;12.05;;;;;;;15.43;58.36;100527.46;1764097;81;21138;-54
2021/04/19 08:36:16;;;;;;;12.50;11.18;;;;;;;15.31;58.95;100526.02;1763420;81;21157;-53
2021/04/19 08:38:44;;;;;;;12.70;11.18;;;;;;;15.85;57.90;100523.06;1762967;81;21197;-66
2021/04/19 08:41:12;;;;;;;11.68;10.35;;;;;;;16.08;57.43;100518.81;1759047;80;21636;-67
2021/04/19 08:43:41;;;;;;;12.10;10.80;;;;;;;16.14;57.26;100514.63;1766416;80;21199;-53
2021/04/19 08:46:12;;;;;;;10.70;9.60;;;;;;;16.21;57.13;100512.63;1761438;80;21161;-53
2021/04/19 08:48:40;;;;;;;11.35;10.15;;;;;;;16.34;56.68;100516.61;1720226;81;21622;-53
2021/04/19 08:51:07;;;;;;;10.82;9.58;;;;;;;16.35;56.69;100511.70;1747309;81;21296;-66
2021/04/19 08:53:37;;;;;;;13.13;10.05;;;;;;;16.34;56.81;100519.70;1695696;83;21701;-53
2021/04/19 08:56:06;;;;;;;15.20;9.78;;;;;;;16.34;55.90;100522.36;1748759;81;21264;-67
2021/04/19 08:58:34;;;;;;;11.18;8.83;;;;;;;16.33;55.80;100525.50;1720364;81;21600;-67
2021/04/19 09:01:02;;;;;;;11.60;9.83;;;;;;;16.36;55.60;100521.85;1727508;81;21308;-52
2021/04/19 09:03:31;;;;;;;10.40;8.85;;;;;;;16.39;55.47;100519.57;1704791;83;21153;-54
2021/04/19 09:05:58;;;;;;;11.40;9.45;;;;;;;16.50;54.99;100513.44;1710383;82;21535;-67
2021/04/19 09:08:27;;;;;;;12.78;9.95;;;;;;;16.45;55.13;100517.56;1679083;83;22440;-54
2021/04/19 09:11:05;;;;;;;12.20;10.70;;;;;;;16.49;55.07;100513.88;1684526;81;21608;-54
2021/04/19 09:13:34;;;;;;;12.65;10.25;;;;;;;16.56;54.91;100513.19;1737180;81;21151;-67
2021/04/19 09:16:16;;;;;;;11.40;10.08;;;;;;;16.67;54.70;100507.97;1719713;83;21181;-67
2021/04/19 09:18:47;;;;;;;11.80;10.18;;;;;;;16.70;54.58;100509.19;1724863;83;23247;-53
2021/04/19 09:21:41;;;;;;;11.33;10.18;;;;;;;16.82;54.40;100502.11;1693995;84;21198;-66
2021/04/19 09:24:14;;;;;;;11.55;10.30;;;;;;;16.89;54.32;100501.41;1724928;83;21321;-52
2021/04/19 09:26:59;;;;;;;10.45;9.35;;;;;;;17.04;54.22;100500.00;1740652;81;21250;-65
2021/04/19 09:29:41;;;;;;;11.78;9.93;;;;;;;17.07;54.38;100498.11;1702844;84;21190;-65
2021/04/19 09:32:19;;;;;;;16.97;10.58;;;;;;;17.20;54.39;100498.99;1716656;83;21177;-65
2021/04/19 09:34:53;;;;;;;18.37;10.80;;;;;;;17.33;54.29;100496.24;1712002;82;21215;-65
2021/04/19 09:37:25;;;;;;;12.33;10.25;;;;;;;17.73;53.70;100500.47;1742425;81;21316;-65
2021/04/19 09:40:00;;;;;;;13.72;10.65;;;;;;;17.53;54.05;100496.79;1705388;83;21153;-53
2021/04/19 09:43:05;;;;;;;13.60;10.38;;;;;;;17.62;53.93;100498.24;1733826;82;21308;-52
2021/04/19 09:45:52;;;;;;;25.68;12.23;;;;;;;17.72;53.66;100499.17;1697239;84;21194;-54
2021/04/19 09:48:34;;;;;;;17.77;11.65;;;;;;;17.83;53.89;100502.28;1720534;83;21182;-52
2021/04/19 09:57:58;;;;;;;11.83;9.35;;;;;;;18.17;53.09;100486.27;1834888;77;22176;-52
2021/04/19 10:00:26;;;;;;;11.25;9.95;;;;;;;18.22;52.85;100492.27;1763183;80;21646;-52
2021/04/19 10:02:54;;;;;;;10.65;9.55;;;;;;;18.30;52.53;100490.63;1760640;81;21265;-52
2021/04/19 10:05:22;;;;;;;11.63;9.33;;;;;;;18.37;52.39;100497.39;1761769;80;21151;-53
2021/04/19 10:07:50;;;;;;;11.08;9.95;;;;;;;18.47;51.99;100495.67;1762185;81;21292;-52
2021/04/19 10:10:19;;;;;;;11.68;9.23;;;;;;;18.52;51.83;100497.22;1712734;81;21189;-53
2021/04/19 10:12:48;;;;;;;11.43;9.48;;;;;;;18.60;51.65;100495.55;1755885;81;21281;-66
2021/04/19 10:15:20;;;;;;;10.08;9.00;;;;;;;18.74;51.41;100496.26;1761967;80;21135;-53
2021/04/19 10:17:49;;;;;;;10.93;9.50;;;;;;;18.82;51.43;100490.12;1737711;81;21139;-67
2021/04/19 10:20:24;;;;;;;11.88;9.68;;;;;;;18.90;51.28;100487.58;1720618;81;21131;-68
2021/04/19 10:23:11;;;;;;;10.35;9.25;;;;;;;18.98;51.27;100488.13;1708686;83;21495;-55
2021/04/19 10:25:48;;;;;;;10.65;9.28;;;;;;;19.12;50.94;100491.01;1727656;83;21162;-54
2021/04/19 10:28:35;;;;;;;10.82;9.65;;;;;;;19.24;50.65;100482.05;1714464;84;21152;-55
2021/04/19 10:31:16;;;;;;;11.12;8.88;;;;;;;19.33;50.57;100477.62;1726013;83;21689;-65
2021/04/19 10:33:45;;;;;;;281.90;28.73;;;;;;;18.78;51.81;100486.31;1725798;82;21196;-54
2021/04/19 10:36:23;;;;;;;43.87;12.05;;;;;;;19.17;51.05;100483.66;1722008;83;21136;-65
2021/04/19 10:38:59;;;;;;;16.35;10.43;;;;;;;19.53;50.38;100480.66;1731368;83;21158;-64
2021/04/19 10:41:34;;;;;;;11.15;9.38;;;;;;;19.66;49.52;100470.25;1689234;84;21141;-64
2021/04/19 10:44:04;;;;;;;10.13;9.03;;;;;;;19.72;49.66;100470.41;1690393;84;21242;-54
2021/04/19 10:46:38;;;;;;;10.03;8.55;;;;;;;19.79;49.74;100464.31;1713154;83;21212;-54
2021/04/19 10:49:07;;;;;;;10.75;9.63;;;;;;;19.90;49.57;100464.65;1724235;83;21583;-66
2021/04/19 10:51:37;;;;;;;9.60;8.60;;;;;;;20.04;48.66;100468.84;1702110;83;21182;-55
2021/04/19 10:54:07;;;;;;;10.85;9.33;;;;;;;20.14;48.94;100477.73;1705307;84;21344;-55
2021/04/19 10:56:35;;;;;;;9.30;8.10;;;;;;;20.26;48.65;100470.88;1711414;83;21310;-66
2021/04/19 10:59:07;;;;;;;10.38;8.05;;;;;;;20.38;48.42;100473.39;1700956;84;21136;-66
2021/04/19 11:01:42;;;;;;;9.78;8.78;;;;;;;20.48;48.20;100468.84;1705257;84;21583;-64
2021/04/19 11:04:10;;;;;;;11.65;8.83;;;;;;;20.60;47.38;100471.33;1704754;83;21210;-65
2021/04/19 11:06:40;;;;;;;;;;;;;;;20.38;45.14;100468.04;1704201;83;21154;-66
2021/04/19 11:09:17;;;;;;;9.03;8.10;;;;;;;20.19;46.58;100477.02;1700585;83;20487;-55
2021/04/19 11:11:48;;;;;;;9.05;7.72;;;;;;;20.30;47.12;100471.13;1700615;83;21595;-66
2021/04/19 11:14:20;;;;;;;;;;;;;;;20.41;45.80;100464.75;1737155;82;21158;-66
2021/04/19 11:17:02;;;;;;;9.28;7.30;;;;;;;19.84;47.33;100457.79;1748356;82;20160;-66
2021/04/19 11:19:45;;;;;;;8.38;7.35;;;;;;;20.43;47.48;100455.30;1747376;81;21136;-53
2021/04/19 11:22:27;;;;;;;8.48;7.20;;;;;;;20.69;45.83;100451.25;1747225;82;21135;-55
2021/04/19 11:25:18;;;;;;;8.63;7.50;;;;;;;20.92;46.86;100451.86;1746113;81;21196;-67
2021/04/19 11:27:48;;;;;;;7.87;7.08;;;;;;;21.16;45.93;100448.31;1748357;82;21139;-65
2021/04/19 11:30:27;;;;;;;10.55;7.67;;;;;;;21.28;44.16;100447.21;1748277;81;21143;-54
2021/04/19 11:33:08;;;;;;;10.15;8.00;;;;;;;21.34;45.22;100446.41;1748134;82;21167;-55
2021/04/19 11:35:45;;;;;;;10.53;7.08;;;;;;;21.53;45.42;100439.53;1748312;82;21123;-55
2021/04/19 11:38:22;;;;;;;9.85;7.65;;;;;;;21.77;45.24;100439.57;1748035;82;21150;-65
2021/04/19 11:40:59;;;;;;;12.40;7.78;;;;;;;21.99;45.14;100432.47;1746547;82;21148;-55
2021/04/19 11:43:37;;;;;;;11.25;6.95;;;;;;;22.22;45.36;100431.55;1746882;81;21583;-66
2021/04/19 11:46:11;;;;;;;7.75;6.87;;;;;;;22.47;44.76;100429.61;1748101;81;21135;-54
2021/04/19 11:48:43;;;;;;;13.38;8.15;;;;;;;22.64;44.07;100418.33;1747135;82;21147;-54
2021/04/19 11:51:14;;;;;;;6.85;5.58;;;;;;;22.79;44.18;100419.18;1746439;82;21195;-65